NOSIG

AcronymDefinition
NOSIGNo Significant Change (Meteorology & Aviation)
NOSIGNordic Simulator Group
NOSIGNo Signature
References in periodicals archive ?
Daily temperatures were obtained from the Meteorological Aviation Report (METAR) system, which reports data from an automated weather observing system (AWOS) weather station (METAR station identification number: VAAH 040710Z 01003KT 4000 DU FEW080 40/21 Q1006 NOSIG) located at Ahmedabad's Sardar Vallabai Patel International Airport.